createdAt,value
2023-04-10T00:02:22.306Z,29.97
2023-04-10T00:07:20.890Z,35.90
2023-04-10T00:12:20.929Z,32.07
2023-04-10T00:17:19.545Z,28.73
2023-04-10T00:22:17.673Z,28.30
2023-04-10T00:27:16.463Z,17.60
2023-04-10T00:32:16.365Z,30.70
2023-04-10T00:37:14.823Z,25.97
2023-04-10T00:42:13.325Z,20.47
2023-04-10T00:47:11.857Z,17.13
2023-04-10T00:52:12.033Z,24.87
2023-04-10T00:57:10.699Z,20.27
2023-04-10T01:02:11.676Z,24.30
2023-04-10T01:07:19.205Z,18.23
2023-04-10T01:12:32.265Z,24.90
2023-04-10T01:17:36.630Z,27.20
2023-04-10T01:22:43.135Z,22.33
2023-04-10T01:28:01.315Z,29.30
2023-04-10T01:33:03.322Z,15.77
2023-04-10T01:38:03.524Z,20.93
2023-04-10T01:43:03.670Z,29.43
2023-04-10T01:48:14.378Z,26.97
2023-04-10T01:53:12.970Z,16.50
2023-04-10T01:58:12.382Z,19.40
2023-04-10T02:03:14.674Z,20.13
2023-04-10T02:08:16.907Z,21.17
2023-04-10T02:13:22.340Z,30.80
2023-04-10T02:18:24.160Z,29.23
2023-04-10T02:23:22.854Z,18.80
2023-04-10T02:28:21.338Z,28.80
2023-04-10T02:40:16.524Z,19.17
2023-04-10T02:45:25.408Z,24.03
2023-04-10T02:50:23.654Z,20.33
2023-04-10T02:55:23.935Z,22.70
2023-04-10T03:00:23.372Z,14.47
2023-04-10T03:05:38.345Z,25.90
2023-04-10T03:10:38.346Z,19.97
2023-04-10T03:15:36.570Z,18.00
2023-04-10T03:20:35.400Z,20.07
2023-04-10T03:25:37.420Z,18.10
2023-04-10T03:30:38.211Z,23.17
2023-04-10T03:35:36.808Z,21.23
2023-04-10T03:40:38.150Z,19.73
2023-04-10T03:45:39.775Z,19.80
2023-04-10T03:50:38.596Z,27.80
2023-04-10T03:55:39.259Z,20.90
2023-04-10T04:00:37.939Z,21.00
2023-04-10T04:05:58.929Z,19.67
2023-04-10T04:11:10.090Z,20.23
2023-04-10T04:16:19.413Z,35.37
2023-04-10T04:21:23.668Z,22.33
2023-04-10T04:27:01.708Z,24.73
2023-04-10T04:32:22.636Z,20.30
2023-04-10T04:37:39.688Z,17.20
2023-04-10T04:43:09.286Z,24.00
2023-04-10T04:48:24.713Z,25.20
2023-04-10T04:53:52.605Z,32.07
2023-04-10T04:59:11.560Z,18.70
2023-04-10T05:04:36.087Z,16.97
2023-04-10T05:09:57.207Z,24.70
2023-04-10T05:15:17.435Z,21.10
2023-04-10T05:20:24.634Z,20.70
2023-04-10T05:25:33.383Z,21.40
2023-04-10T05:30:43.455Z,30.07
2023-04-10T05:35:59.314Z,20.40
2023-04-10T05:41:07.080Z,18.53
2023-04-10T05:46:12.156Z,29.83
2023-04-10T05:51:19.951Z,22.80
2023-04-10T05:56:36.921Z,20.13
2023-04-10T06:01:55.412Z,20.63
2023-04-10T06:06:53.859Z,17.73
2023-04-10T06:11:53.826Z,27.60
2023-04-10T06:16:56.181Z,34.10
2023-04-10T06:21:54.744Z,26.83
2023-04-10T06:26:54.365Z,29.17
2023-04-10T06:31:52.919Z,27.03
2023-04-10T06:36:53.364Z,16.83
2023-04-10T06:41:52.281Z,18.03
2023-04-10T06:47:13.784Z,17.97
2023-04-10T06:52:13.725Z,21.30
2023-04-10T06:57:11.862Z,21.20
2023-04-10T07:02:10.797Z,24.70
2023-04-10T07:07:10.324Z,24.03
2023-04-10T07:12:10.176Z,23.73
2023-04-10T07:17:08.707Z,35.17
2023-04-10T07:22:08.344Z,25.83
2023-04-10T07:27:06.595Z,20.60
2023-04-10T07:32:07.291Z,15.13
2023-04-10T07:37:06.202Z,28.80
2023-04-10T07:42:04.395Z,15.73
2023-04-10T07:47:03.580Z,18.90
2023-04-10T07:52:03.535Z,17.47
2023-04-10T07:57:01.831Z,16.50
2023-04-10T08:02:00.932Z,13.47
2023-04-10T08:06:59.523Z,20.13
2023-04-10T08:11:59.477Z,15.13
2023-04-10T08:16:58.370Z,12.63
2023-04-10T08:21:56.905Z,22.07
2023-04-10T08:26:55.032Z,15.40
2023-04-10T08:31:55.997Z,14.53
2023-04-10T08:36:55.061Z,14.17
2023-04-10T08:41:53.287Z,17.37
2023-04-10T08:46:52.871Z,17.30
2023-04-10T08:51:58.229Z,13.97
2023-04-10T08:56:58.838Z,11.80
2023-04-10T09:01:58.244Z,13.20
2023-04-10T09:06:58.183Z,16.80
2023-04-10T09:12:04.622Z,13.60
2023-04-10T09:17:19.950Z,16.03
2023-04-10T09:22:20.312Z,11.70
2023-04-10T09:27:36.113Z,10.60
2023-04-10T09:32:42.420Z,14.73
2023-04-10T09:37:43.790Z,12.00
2023-04-10T09:42:41.992Z,9.87
2023-04-10T09:47:40.844Z,11.40
2023-04-10T09:52:39.590Z,8.03
2023-04-10T09:57:39.434Z,9.87
2023-04-10T10:02:40.315Z,10.03
2023-04-10T10:07:39.792Z,11.17
2023-04-10T10:12:46.017Z,11.67
2023-04-10T10:17:52.506Z,8.40
2023-04-10T10:22:52.822Z,8.73
2023-04-10T10:27:55.156Z,8.27
2023-04-10T10:32:54.069Z,7.70
2023-04-10T10:37:53.127Z,7.60
2023-04-10T10:43:06.092Z,10.10
2023-04-10T10:48:04.812Z,9.20
2023-04-10T10:53:03.411Z,7.73
2023-04-10T10:58:05.477Z,7.97
2023-04-10T11:03:31.137Z,6.37
2023-04-10T11:08:46.093Z,5.57
2023-04-10T11:14:18.462Z,7.43
2023-04-10T11:19:22.661Z,6.33
2023-04-10T11:24:22.582Z,7.07
2023-04-10T11:29:46.448Z,5.80
2023-04-10T11:34:46.202Z,6.80
2023-04-10T11:39:44.667Z,5.40
2023-04-10T11:44:43.636Z,6.23
2023-04-10T11:49:43.500Z,5.10
2023-04-10T11:54:50.142Z,3.80
2023-04-10T11:59:52.509Z,5.27
2023-04-10T12:05:00.188Z,5.43
2023-04-10T12:09:58.887Z,6.40
2023-04-10T12:14:57.454Z,5.33
2023-04-10T12:19:57.930Z,4.53
2023-04-10T12:24:56.400Z,4.90
2023-04-10T12:29:56.435Z,3.67
2023-04-10T12:34:58.223Z,5.27
2023-04-10T12:40:07.669Z,3.80
2023-04-10T12:45:09.812Z,5.27
2023-04-10T12:50:11.382Z,6.63
2023-04-10T12:55:12.123Z,6.03
2023-04-10T13:00:12.072Z,11.37
2023-04-10T13:05:12.534Z,15.10
2023-04-10T13:10:11.516Z,7.67
2023-04-10T13:15:11.072Z,7.03
2023-04-10T13:20:13.764Z,5.67
2023-04-10T13:25:12.273Z,4.27
2023-04-10T13:30:10.872Z,6.67
2023-04-10T13:35:10.060Z,6.17
2023-04-10T13:40:11.476Z,6.20
2023-04-10T13:45:10.704Z,5.50
2023-04-10T13:50:09.938Z,7.80
2023-04-10T13:55:11.056Z,8.30
2023-04-10T14:00:10.698Z,7.37
2023-04-10T14:05:12.425Z,4.70
2023-04-10T14:10:12.621Z,6.00
2023-04-10T14:15:11.724Z,4.87
2023-04-10T14:20:12.028Z,7.77
2023-04-10T14:25:16.175Z,6.83
2023-04-10T14:30:15.184Z,5.70
2023-04-10T14:35:14.243Z,7.90
2023-04-10T14:40:14.257Z,7.83
2023-04-10T14:45:13.038Z,4.93
2023-04-10T14:50:12.284Z,3.87
2023-04-10T14:55:11.662Z,5.20
2023-04-10T15:00:12.796Z,5.30
2023-04-10T15:05:11.325Z,4.03
2023-04-10T15:10:10.927Z,4.30
2023-04-10T15:15:12.042Z,3.50
2023-04-10T15:20:11.635Z,6.57
2023-04-10T15:25:12.364Z,4.27
2023-04-10T15:30:13.411Z,4.87
2023-04-10T15:35:11.972Z,5.10
2023-04-10T15:40:11.324Z,6.87
2023-04-10T15:45:11.353Z,5.67
2023-04-10T15:50:10.922Z,6.87
2023-04-10T15:55:09.980Z,5.00
2023-04-10T16:00:09.769Z,5.67
2023-04-10T16:05:10.051Z,4.30
2023-04-10T16:10:09.891Z,6.20
2023-04-10T16:15:09.551Z,7.47
2023-04-10T16:20:09.913Z,5.80
2023-04-10T16:25:12.630Z,4.93
2023-04-10T16:30:12.136Z,5.50
2023-04-10T16:35:12.092Z,6.27
2023-04-10T16:40:12.478Z,3.50
2023-04-10T16:45:11.723Z,6.90
2023-04-10T16:50:12.551Z,7.50
2023-04-10T16:55:11.108Z,5.13
2023-04-10T17:00:11.182Z,7.17
2023-04-10T17:05:11.534Z,6.50
2023-04-10T17:10:10.618Z,5.47
2023-04-10T17:15:09.652Z,4.83
2023-04-10T17:20:10.200Z,5.20
2023-04-10T17:25:10.961Z,4.80
2023-04-10T17:30:13.410Z,6.37
2023-04-10T17:35:11.922Z,5.40
2023-04-10T17:40:13.315Z,8.13
2023-04-10T17:45:13.137Z,6.60
2023-04-10T17:50:12.053Z,11.70
2023-04-10T17:55:12.154Z,7.93
2023-04-10T18:00:16.131Z,9.70
2023-04-10T18:05:15.323Z,6.10
2023-04-10T18:10:14.839Z,7.10
2023-04-10T18:15:15.018Z,7.73
2023-04-10T18:20:13.510Z,7.80
2023-04-10T18:25:12.739Z,7.57
2023-04-10T18:30:13.682Z,6.97
2023-04-10T18:35:12.321Z,5.07
2023-04-10T18:40:16.212Z,8.67
2023-04-10T18:45:16.733Z,6.07
2023-04-10T18:50:15.372Z,6.57
2023-04-10T18:55:13.634Z,7.63
2023-04-10T19:00:13.273Z,9.00
2023-04-10T19:05:14.709Z,8.40
2023-04-10T19:10:12.857Z,6.90
2023-04-10T19:15:14.068Z,7.47
2023-04-10T19:20:14.164Z,6.70
2023-04-10T19:25:12.658Z,9.00
2023-04-10T19:30:11.741Z,5.70
2023-04-10T19:35:11.035Z,6.47
2023-04-10T19:40:11.988Z,8.37
2023-04-10T19:45:11.868Z,6.57
2023-04-10T19:50:10.970Z,7.30
2023-04-10T19:55:11.483Z,12.57
2023-04-10T20:00:11.548Z,6.60
2023-04-10T20:05:12.728Z,9.20
2023-04-10T20:10:13.401Z,7.43
2023-04-10T20:15:12.437Z,10.30
2023-04-10T20:20:13.120Z,6.53
2023-04-10T20:25:13.322Z,6.00
2023-04-10T20:30:12.298Z,6.43
2023-04-10T20:35:11.389Z,5.90
2023-04-10T20:40:12.583Z,4.40
2023-04-10T20:45:12.430Z,7.97
2023-04-10T20:50:12.774Z,6.77
2023-04-10T20:55:13.761Z,5.83
2023-04-10T21:00:13.216Z,6.40
2023-04-10T21:05:11.968Z,4.80
2023-04-10T21:10:12.311Z,7.63
2023-04-10T21:15:11.414Z,4.77
2023-04-10T21:20:10.104Z,5.80
2023-04-10T21:25:09.874Z,4.03
2023-04-10T21:30:10.933Z,5.07
2023-04-10T21:35:09.618Z,6.60
2023-04-10T21:40:09.786Z,4.00
2023-04-10T21:45:11.600Z,4.63
2023-04-10T21:50:10.994Z,5.07
2023-04-10T21:55:10.232Z,4.30
2023-04-10T22:00:12.555Z,6.53
2023-04-10T22:05:11.746Z,5.13
2023-04-10T22:10:10.893Z,6.50
2023-04-10T22:15:12.207Z,6.33
2023-04-10T22:20:11.403Z,5.43
2023-04-10T22:25:10.666Z,3.57
2023-04-10T22:30:11.957Z,5.50
2023-04-10T22:35:10.979Z,3.87
2023-04-10T22:40:10.653Z,4.67
2023-04-10T22:45:11.772Z,6.40
2023-04-10T22:50:10.749Z,6.43
2023-04-10T22:55:10.084Z,6.53
2023-04-10T23:00:11.130Z,3.87
2023-04-10T23:05:10.306Z,3.80
2023-04-10T23:10:10.554Z,4.80
2023-04-10T23:15:11.747Z,3.80
2023-04-10T23:20:11.229Z,3.47
2023-04-10T23:25:10.253Z,4.53
2023-04-10T23:30:09.484Z,3.90
2023-04-10T23:35:10.296Z,3.40
2023-04-10T23:40:10.210Z,3.07
2023-04-10T23:45:10.002Z,4.50
2023-04-10T23:50:11.267Z,3.50
2023-04-10T23:55:09.938Z,3.57
